createdAt,value
2023-02-06T00:01:19.654Z,26.03
2023-02-06T00:03:46.593Z,29.87
2023-02-06T00:06:13.322Z,25.53
2023-02-06T00:08:40.102Z,25.70
2023-02-06T00:11:08.939Z,32.43
2023-02-06T00:13:36.895Z,29.27
2023-02-06T00:16:04.549Z,37.47
2023-02-06T00:18:31.977Z,26.83
2023-02-06T00:21:01.790Z,19.63
2023-02-06T00:23:28.644Z,33.87
2023-02-06T00:25:58.051Z,24.37
2023-02-06T00:28:24.826Z,23.97
2023-02-06T00:30:54.058Z,25.83
2023-02-06T00:33:23.872Z,21.33
2023-02-06T00:35:50.728Z,30.27
2023-02-06T00:38:17.505Z,29.43
2023-02-06T00:40:44.363Z,26.70
2023-02-06T00:43:11.398Z,24.03
2023-02-06T00:45:38.111Z,21.23
2023-02-06T00:48:04.992Z,22.57
2023-02-06T00:50:38.130Z,24.87
2023-02-06T00:53:04.851Z,24.20
2023-02-06T00:55:31.652Z,25.00
2023-02-06T00:57:58.480Z,23.60
2023-02-06T01:00:28.061Z,23.53
2023-02-06T01:02:54.914Z,25.70
2023-02-06T01:05:21.831Z,18.77
2023-02-06T01:07:48.624Z,20.07
2023-02-06T01:10:16.118Z,27.83
2023-02-06T01:12:43.255Z,26.80
2023-02-06T01:15:12.784Z,30.80
2023-02-06T01:17:40.877Z,20.50
2023-02-06T01:20:11.423Z,21.97
2023-02-06T01:22:38.447Z,30.70
2023-02-06T01:25:08.582Z,17.03
2023-02-06T01:27:37.120Z,22.17
2023-02-06T01:30:06.125Z,25.53
2023-02-06T01:32:36.006Z,20.80
2023-02-06T01:35:02.993Z,25.27
2023-02-06T01:37:30.574Z,26.70
2023-02-06T01:39:57.335Z,26.73
2023-02-06T01:42:24.794Z,26.40
2023-02-06T01:45:24.675Z,21.80
2023-02-06T01:47:54.621Z,23.07
2023-02-06T01:50:21.941Z,29.47
2023-02-06T01:52:48.961Z,24.17
2023-02-06T01:55:16.192Z,26.53
2023-02-06T01:57:43.282Z,23.40
2023-02-06T02:00:11.371Z,23.90
2023-02-06T02:02:43.039Z,22.20
2023-02-06T02:05:11.690Z,26.50
2023-02-06T02:07:45.268Z,21.10
2023-02-06T02:10:12.212Z,30.23
2023-02-06T02:12:39.012Z,25.03
2023-02-06T02:15:06.285Z,19.40
2023-02-06T02:17:56.604Z,21.90
2023-02-06T02:20:29.588Z,23.50
2023-02-06T02:23:21.223Z,26.30
2023-02-06T02:26:26.660Z,21.37
2023-02-06T02:29:32.635Z,25.70
2023-02-06T02:32:27.046Z,22.53
2023-02-06T02:35:19.423Z,28.83
2023-02-06T02:37:55.367Z,19.67
2023-02-06T02:40:37.020Z,15.27
2023-02-06T02:43:12.359Z,23.00
2023-02-06T02:46:04.317Z,16.53
2023-02-06T02:48:35.810Z,23.47
2023-02-06T02:51:07.241Z,23.93
2023-02-06T02:53:34.080Z,21.27
2023-02-06T02:56:01.006Z,20.17
2023-02-06T02:58:32.716Z,23.40
2023-02-06T03:01:03.544Z,16.37
2023-02-06T03:03:33.410Z,22.03
2023-02-06T03:06:18.809Z,23.23
2023-02-06T03:09:36.353Z,22.57
2023-02-06T03:12:21.995Z,23.63
2023-02-06T03:15:23.460Z,24.23
2023-02-06T03:18:01.394Z,29.47
2023-02-06T03:20:31.513Z,21.37
2023-02-06T03:23:02.753Z,16.03
2023-02-06T03:25:36.768Z,22.40
2023-02-06T03:28:10.006Z,19.40
2023-02-06T03:30:41.739Z,15.67
2023-02-06T03:33:13.546Z,18.20
2023-02-06T03:35:40.538Z,27.63
2023-02-06T03:38:09.073Z,21.43
2023-02-06T03:40:37.538Z,28.87
2023-02-06T03:43:05.785Z,20.43
2023-02-06T03:45:42.583Z,26.47
2023-02-06T03:48:18.061Z,18.47
2023-02-06T03:50:50.315Z,16.50
2023-02-06T03:53:18.917Z,13.63
2023-02-06T03:55:47.294Z,25.83
2023-02-06T03:58:14.890Z,19.00
2023-02-06T04:00:43.950Z,24.37
2023-02-06T04:03:12.902Z,17.50
2023-02-06T04:05:42.341Z,16.43
2023-02-06T04:08:09.185Z,17.00
2023-02-06T04:10:35.966Z,17.60
2023-02-06T04:13:02.826Z,22.00
2023-02-06T04:15:32.333Z,17.40
2023-02-06T04:18:01.255Z,20.77
2023-02-06T04:20:29.423Z,22.33
2023-02-06T04:22:58.897Z,19.97
2023-02-06T04:25:26.575Z,23.03
2023-02-06T04:27:53.751Z,19.60
2023-02-06T04:30:23.872Z,15.43
2023-02-06T04:32:51.126Z,25.53
2023-02-06T04:35:18.092Z,18.77
2023-02-06T04:37:44.830Z,17.80
2023-02-06T04:40:12.338Z,19.40
2023-02-06T04:42:39.172Z,19.67
2023-02-06T04:45:06.401Z,17.40
2023-02-06T04:47:33.159Z,20.10
2023-02-06T04:50:00.113Z,20.70
2023-02-06T04:52:27.034Z,14.47
2023-02-06T04:54:53.891Z,38.63
2023-02-06T04:57:20.939Z,23.77
2023-02-06T04:59:50.704Z,31.27
2023-02-06T05:02:17.558Z,24.07
2023-02-06T05:04:44.369Z,25.07
2023-02-06T05:07:11.174Z,21.60
2023-02-06T05:09:37.888Z,26.13
2023-02-06T05:12:05.207Z,26.93
2023-02-06T05:14:31.959Z,30.43
2023-02-06T05:16:58.857Z,18.90
2023-02-06T05:19:25.653Z,25.57
2023-02-06T05:21:52.417Z,23.37
2023-02-06T05:24:19.250Z,27.23
2023-02-06T05:26:46.694Z,20.47
2023-02-06T05:29:13.435Z,20.60
2023-02-06T05:31:40.756Z,22.47
2023-02-06T05:34:08.920Z,22.27
2023-02-06T05:36:36.234Z,19.57
2023-02-06T05:39:07.189Z,22.80
2023-02-06T05:41:34.096Z,17.73
2023-02-06T05:44:00.969Z,24.23
2023-02-06T05:46:27.819Z,24.37
2023-02-06T05:48:57.379Z,30.27
2023-02-06T05:51:29.107Z,18.17
2023-02-06T05:53:57.868Z,17.00
2023-02-06T05:56:24.658Z,25.40
2023-02-06T05:58:51.399Z,21.43
2023-02-06T06:01:24.086Z,20.50
2023-02-06T06:03:50.977Z,16.97
2023-02-06T06:06:20.814Z,19.40
2023-02-06T06:08:47.614Z,20.07
2023-02-06T06:11:14.653Z,19.67
2023-02-06T06:13:41.399Z,19.67
2023-02-06T06:16:08.962Z,24.20
2023-02-06T06:18:35.788Z,24.83
2023-02-06T06:21:04.868Z,22.57
2023-02-06T06:23:31.701Z,26.43
2023-02-06T06:25:58.445Z,23.73
2023-02-06T06:28:25.188Z,20.20
2023-02-06T06:30:59.999Z,23.43
2023-02-06T06:33:26.739Z,17.50
2023-02-06T06:35:56.198Z,27.83
2023-02-06T06:38:23.433Z,18.60
2023-02-06T06:40:50.475Z,15.93
2023-02-06T06:43:17.288Z,13.47
2023-02-06T06:45:44.343Z,19.03
2023-02-06T06:48:11.233Z,19.43
2023-02-06T06:50:37.924Z,23.60
2023-02-06T06:53:04.736Z,17.67
2023-02-06T06:55:32.092Z,19.77
2023-02-06T06:57:59.313Z,13.63
2023-02-06T07:00:26.698Z,21.83
2023-02-06T07:02:56.690Z,20.77
2023-02-06T07:05:23.621Z,20.07
2023-02-06T07:07:50.726Z,24.93
2023-02-06T07:10:18.020Z,16.30
2023-02-06T07:12:48.197Z,20.80
2023-02-06T07:15:15.328Z,21.03
2023-02-06T07:17:42.079Z,18.93
2023-02-06T07:20:14.745Z,12.60
2023-02-06T07:22:41.662Z,24.03
2023-02-06T07:25:08.594Z,19.93
2023-02-06T07:27:35.388Z,23.57
2023-02-06T07:30:06.603Z,22.47
2023-02-06T07:32:36.244Z,16.77
2023-02-06T07:35:03.293Z,20.67
2023-02-06T07:37:30.125Z,24.47
2023-02-06T07:40:01.383Z,24.97
2023-02-06T07:42:28.228Z,22.73
2023-02-06T07:44:57.598Z,20.23
2023-02-06T07:47:27.339Z,18.93
2023-02-06T07:49:54.019Z,19.23
2023-02-06T07:52:23.557Z,16.03
2023-02-06T07:54:50.327Z,20.37
2023-02-06T07:57:17.374Z,24.47
2023-02-06T07:59:44.118Z,20.40
2023-02-06T08:02:12.573Z,20.90
2023-02-06T08:04:45.676Z,18.63
2023-02-06T08:07:15.167Z,23.50
2023-02-06T08:09:46.817Z,31.33
2023-02-06T08:12:13.573Z,21.10
2023-02-06T08:14:46.515Z,26.83
2023-02-06T08:17:13.769Z,23.53
2023-02-06T08:19:43.273Z,23.93
2023-02-06T08:22:12.498Z,24.20
2023-02-06T08:24:39.461Z,15.97
2023-02-06T08:27:07.198Z,16.50
2023-02-06T08:29:42.473Z,21.10
2023-02-06T08:32:12.632Z,24.10
2023-02-06T08:34:40.512Z,26.60
2023-02-06T08:37:07.650Z,22.23
2023-02-06T08:39:38.156Z,22.40
2023-02-06T08:42:05.185Z,25.40
2023-02-06T08:44:32.381Z,20.40
2023-02-06T08:47:09.565Z,21.93
2023-02-06T08:49:37.588Z,24.87
2023-02-06T08:52:06.487Z,24.67
2023-02-06T08:54:35.954Z,24.63
2023-02-06T08:57:03.794Z,19.47
2023-02-06T08:59:31.061Z,28.23
2023-02-06T09:01:57.975Z,18.30
2023-02-06T09:04:27.308Z,29.73
2023-02-06T09:06:54.101Z,28.43
2023-02-06T09:09:20.949Z,21.43
2023-02-06T09:11:47.660Z,23.90
2023-02-06T09:14:17.631Z,21.90
2023-02-06T09:16:44.698Z,26.93
2023-02-06T09:19:11.895Z,23.67
2023-02-06T09:21:46.514Z,24.60
2023-02-06T09:24:15.107Z,19.43
2023-02-06T09:26:58.584Z,21.20
2023-02-06T09:29:29.096Z,19.77
2023-02-06T09:31:57.516Z,26.63
2023-02-06T09:34:25.774Z,22.10
2023-02-06T09:36:57.075Z,24.27
2023-02-06T09:39:24.694Z,21.33
2023-02-06T09:41:55.231Z,23.37
2023-02-06T09:44:27.647Z,24.50
2023-02-06T09:47:14.814Z,17.90
2023-02-06T09:49:48.132Z,22.90
2023-02-06T09:52:31.195Z,29.20
2023-02-06T09:55:29.644Z,27.40
2023-02-06T09:58:44.329Z,23.07
2023-02-06T10:01:35.021Z,17.13
2023-02-06T10:04:16.244Z,24.50
2023-02-06T10:06:56.105Z,16.40
2023-02-06T10:09:39.401Z,20.37
2023-02-06T10:12:14.597Z,19.00
2023-02-06T10:14:49.306Z,25.77
2023-02-06T10:17:19.801Z,18.67
2023-02-06T10:20:18.663Z,15.70
2023-02-06T10:22:57.578Z,17.40
2023-02-06T10:25:56.720Z,16.53
2023-02-06T10:28:26.477Z,19.63
2023-02-06T10:31:02.398Z,17.30
2023-02-06T10:33:36.169Z,16.10
2023-02-06T10:36:26.985Z,17.07
2023-02-06T10:39:07.808Z,20.53
2023-02-06T10:41:43.594Z,17.00
2023-02-06T10:44:28.096Z,17.47
2023-02-06T10:46:56.605Z,20.17
2023-02-06T10:49:32.392Z,15.93
2023-02-06T10:52:16.872Z,19.03
2023-02-06T10:54:52.311Z,13.67
2023-02-06T10:57:28.551Z,19.53
2023-02-06T11:00:00.344Z,18.97
2023-02-06T11:02:47.476Z,19.20
2023-02-06T11:05:26.901Z,18.57
2023-02-06T11:08:07.401Z,13.40
2023-02-06T11:10:34.358Z,14.13
2023-02-06T11:13:04.717Z,19.30
2023-02-06T11:16:04.868Z,20.17
2023-02-06T11:18:35.874Z,17.53
2023-02-06T11:21:08.071Z,12.70
2023-02-06T11:23:35.175Z,19.50
2023-02-06T11:26:09.023Z,16.17
2023-02-06T11:28:39.204Z,20.10
2023-02-06T11:31:08.623Z,17.53
2023-02-06T11:33:47.458Z,15.87
2023-02-06T11:36:39.744Z,18.47
2023-02-06T11:39:27.710Z,12.47
2023-02-06T11:42:07.137Z,15.53
2023-02-06T11:44:39.936Z,12.10
2023-02-06T11:47:25.410Z,14.17
2023-02-06T11:49:52.274Z,13.20
2023-02-06T11:52:33.237Z,21.60
2023-02-06T11:55:02.541Z,14.20
2023-02-06T11:57:32.352Z,11.20
2023-02-06T12:00:03.888Z,14.97
2023-02-06T12:02:33.808Z,19.17
2023-02-06T12:05:14.831Z,18.47
2023-02-06T12:07:55.954Z,10.63
2023-02-06T12:10:24.364Z,10.90
2023-02-06T12:12:56.769Z,19.73
2023-02-06T12:15:45.901Z,20.57
2023-02-06T12:18:17.389Z,20.47
2023-02-06T12:20:54.734Z,17.17
2023-02-06T12:23:48.915Z,17.10
2023-02-06T12:26:19.347Z,23.20
2023-02-06T12:29:08.226Z,11.83
2023-02-06T12:32:14.863Z,13.23
2023-02-06T12:35:04.367Z,16.20
2023-02-06T12:37:39.771Z,16.17
2023-02-06T12:40:34.624Z,15.40
2023-02-06T12:43:13.103Z,14.80
2023-02-06T12:46:08.331Z,9.77
2023-02-06T12:48:56.939Z,13.33
2023-02-06T12:51:56.161Z,14.37
2023-02-06T12:54:28.458Z,15.87
2023-02-06T12:57:19.917Z,15.07
2023-02-06T13:00:05.419Z,15.67
2023-02-06T13:02:59.947Z,18.30
2023-02-06T13:05:36.064Z,13.93
2023-02-06T13:08:18.382Z,10.20
2023-02-06T13:10:45.401Z,18.10
2023-02-06T13:13:40.080Z,13.13
2023-02-06T13:16:08.591Z,10.57
2023-02-06T13:18:37.115Z,13.33
2023-02-06T13:21:28.774Z,10.03
2023-02-06T13:24:01.840Z,10.83
2023-02-06T13:26:47.912Z,13.93
2023-02-06T13:29:27.414Z,13.07
2023-02-06T13:32:12.662Z,9.27
2023-02-06T13:34:53.774Z,10.50
2023-02-06T13:38:00.489Z,15.30
2023-02-06T13:40:35.644Z,11.23
2023-02-06T13:43:10.092Z,10.60
2023-02-06T13:45:42.596Z,22.07
2023-02-06T13:48:28.220Z,16.47
2023-02-06T13:51:05.214Z,9.40
2023-02-06T13:54:16.617Z,11.23
2023-02-06T13:56:55.144Z,9.57
2023-02-06T13:59:28.027Z,17.43
2023-02-06T14:01:55.574Z,13.73
2023-02-06T14:04:26.443Z,10.80
2023-02-06T14:07:11.775Z,17.90
2023-02-06T14:09:46.157Z,13.27
2023-02-06T14:12:48.778Z,8.07
2023-02-06T14:15:24.525Z,13.10
2023-02-06T14:18:22.510Z,11.93
2023-02-06T14:21:02.856Z,14.30
2023-02-06T14:23:48.284Z,11.27
2023-02-06T14:26:31.267Z,15.30
2023-02-06T14:29:39.520Z,11.00
2023-02-06T14:32:24.411Z,14.27
2023-02-06T14:35:18.570Z,7.77
2023-02-06T14:38:31.506Z,12.13
2023-02-06T14:41:00.353Z,10.97
2023-02-06T14:43:35.358Z,12.53
2023-02-06T14:46:08.017Z,11.03
2023-02-06T14:48:42.704Z,14.37
2023-02-06T14:51:23.381Z,9.03
2023-02-06T14:54:05.610Z,14.77
2023-02-06T14:56:36.502Z,18.30
2023-02-06T14:59:16.969Z,12.37
2023-02-06T15:01:50.425Z,12.83
2023-02-06T15:04:22.027Z,15.53
2023-02-06T15:06:58.082Z,9.97
2023-02-06T15:09:28.228Z,16.97
2023-02-06T15:11:57.328Z,11.03
2023-02-06T15:14:27.443Z,12.47
2023-02-06T15:16:59.129Z,11.27
2023-02-06T15:19:28.673Z,10.27
2023-02-06T15:22:04.492Z,14.67
2023-02-06T15:24:37.269Z,7.97
2023-02-06T15:27:22.693Z,13.27
2023-02-06T15:29:53.006Z,16.17
2023-02-06T15:32:38.512Z,17.73
2023-02-06T15:35:21.165Z,18.00
2023-02-06T15:37:48.500Z,14.70
2023-02-06T15:40:34.344Z,10.53
2023-02-06T15:43:02.776Z,10.77
2023-02-06T15:45:37.822Z,15.43
2023-02-06T15:48:21.109Z,11.47
2023-02-06T15:51:25.295Z,8.20
2023-02-06T15:54:28.424Z,16.47
2023-02-06T15:57:18.532Z,11.87
2023-02-06T15:59:45.774Z,13.07
2023-02-06T16:02:34.773Z,18.00
2023-02-06T16:05:02.585Z,12.17
2023-02-06T16:07:32.432Z,14.33
2023-02-06T16:10:06.038Z,17.23
2023-02-06T16:12:44.668Z,11.30
2023-02-06T16:15:27.314Z,13.27
2023-02-06T16:17:54.850Z,16.63
2023-02-06T16:20:34.024Z,11.07
2023-02-06T16:23:28.928Z,20.10
2023-02-06T16:26:27.368Z,13.73
2023-02-06T16:28:58.300Z,10.70
2023-02-06T16:31:27.530Z,14.50
2023-02-06T16:33:56.161Z,14.40
2023-02-06T16:36:24.365Z,14.93
2023-02-06T16:39:03.603Z,10.27
2023-02-06T16:41:37.190Z,14.20
2023-02-06T16:44:10.147Z,14.80
2023-02-06T16:46:36.846Z,13.70
2023-02-06T16:49:11.135Z,8.10
2023-02-06T16:51:41.869Z,17.33
2023-02-06T16:54:20.966Z,9.37
2023-02-06T16:56:51.038Z,10.67
2023-02-06T16:59:18.025Z,12.27
2023-02-06T17:01:44.833Z,18.93
2023-02-06T17:04:11.531Z,17.07
2023-02-06T17:06:38.942Z,9.60
2023-02-06T17:09:09.123Z,10.77
2023-02-06T17:11:36.978Z,14.47
2023-02-06T17:14:04.441Z,9.83
2023-02-06T17:16:32.158Z,14.60
2023-02-06T17:18:59.248Z,15.93
2023-02-06T17:21:34.822Z,12.80
2023-02-06T17:24:01.753Z,12.90
2023-02-06T17:26:28.437Z,15.10
2023-02-06T17:28:55.212Z,15.30
2023-02-06T17:31:22.589Z,16.33
2023-02-06T17:33:49.917Z,18.87
2023-02-06T17:36:32.777Z,12.65
2023-02-06T17:39:00.363Z,11.73
2023-02-06T17:41:27.770Z,12.00
2023-02-06T17:43:54.492Z,10.43
2023-02-06T17:46:21.274Z,17.17
2023-02-06T17:48:48.120Z,9.90
2023-02-06T17:51:14.963Z,9.43
2023-02-06T17:53:41.706Z,9.03
2023-02-06T17:56:12.900Z,11.90
2023-02-06T17:58:41.221Z,13.97
2023-02-06T18:01:13.320Z,14.80
2023-02-06T18:03:43.610Z,13.97
2023-02-06T18:06:11.505Z,14.23
2023-02-06T18:08:44.050Z,11.17
2023-02-06T18:11:15.510Z,11.27
2023-02-06T18:13:42.755Z,14.10
2023-02-06T18:16:20.619Z,12.90
2023-02-06T18:18:47.961Z,9.20
2023-02-06T18:21:16.199Z,12.03
2023-02-06T18:23:46.863Z,11.83
2023-02-06T18:26:14.154Z,10.97
2023-02-06T18:28:41.021Z,16.77
2023-02-06T18:31:24.800Z,11.50
2023-02-06T18:33:58.100Z,12.47
2023-02-06T18:36:26.017Z,11.17
2023-02-06T18:38:53.843Z,13.40
2023-02-06T18:41:39.567Z,11.70
2023-02-06T18:44:09.065Z,10.10
2023-02-06T18:46:36.154Z,8.33
2023-02-06T18:49:06.107Z,12.97
2023-02-06T18:51:33.300Z,16.63
2023-02-06T18:54:00.353Z,16.73
2023-02-06T18:56:29.702Z,9.97
2023-02-06T18:58:56.657Z,8.93
2023-02-06T19:01:24.608Z,9.37
2023-02-06T19:03:52.873Z,14.90
2023-02-06T19:06:29.964Z,9.50
2023-02-06T19:08:57.280Z,14.90
2023-02-06T19:11:24.842Z,15.90
2023-02-06T19:13:52.208Z,18.30
2023-02-06T19:16:20.551Z,19.63
2023-02-06T19:18:48.758Z,18.83
2023-02-06T19:21:18.687Z,12.97
2023-02-06T19:23:46.910Z,21.57
2023-02-06T19:26:16.638Z,13.67
2023-02-06T19:28:44.103Z,12.40
2023-02-06T19:31:12.666Z,12.30
2023-02-06T19:33:41.405Z,10.13
2023-02-06T19:36:14.116Z,11.93
2023-02-06T19:38:41.941Z,13.03
2023-02-06T19:41:14.615Z,14.83
2023-02-06T19:43:41.946Z,11.73
2023-02-06T19:46:14.992Z,15.23
2023-02-06T19:48:43.823Z,10.97
2023-02-06T19:51:13.704Z,11.87
2023-02-06T19:53:45.638Z,9.33
2023-02-06T19:56:30.951Z,11.90
2023-02-06T19:58:59.990Z,10.20
2023-02-06T20:01:29.930Z,12.93
2023-02-06T20:04:01.379Z,17.30
2023-02-06T20:06:30.741Z,15.33
2023-02-06T20:08:57.642Z,14.43
2023-02-06T20:11:24.518Z,10.53
2023-02-06T20:13:55.590Z,16.17
2023-02-06T20:16:26.846Z,13.60
2023-02-06T20:18:55.076Z,14.83
2023-02-06T20:21:31.268Z,17.43
2023-02-06T20:24:00.745Z,18.23
2023-02-06T20:26:30.543Z,13.33
2023-02-06T20:28:57.789Z,15.83
2023-02-06T20:31:24.628Z,13.90
2023-02-06T20:33:51.931Z,9.80
2023-02-06T20:36:24.152Z,14.60
2023-02-06T20:38:56.150Z,17.47
2023-02-06T20:41:26.245Z,10.63
2023-02-06T20:43:53.358Z,12.30
2023-02-06T20:46:21.586Z,10.30
2023-02-06T20:48:54.894Z,17.03
2023-02-06T20:51:21.925Z,11.17
2023-02-06T20:53:48.874Z,15.47
2023-02-06T20:56:16.506Z,11.80
2023-02-06T20:58:46.388Z,13.47
2023-02-06T21:01:18.750Z,11.50
2023-02-06T21:03:46.763Z,11.03
2023-02-06T21:06:14.552Z,12.27
2023-02-06T21:08:46.402Z,9.03
2023-02-06T21:11:15.765Z,14.40
2023-02-06T21:13:42.675Z,12.73
2023-02-06T21:16:13.465Z,12.03
2023-02-06T21:18:45.136Z,13.73
2023-02-06T21:21:14.337Z,15.73
2023-02-06T21:23:42.774Z,14.03
2023-02-06T21:26:12.274Z,18.23
2023-02-06T21:28:39.824Z,12.50
2023-02-06T21:31:19.056Z,18.43
2023-02-06T21:33:47.485Z,13.63
2023-02-06T21:36:14.649Z,16.70
2023-02-06T21:38:42.130Z,16.37
2023-02-06T21:41:15.311Z,14.43
2023-02-06T21:43:42.313Z,15.57
2023-02-06T21:46:09.900Z,17.60
2023-02-06T21:48:37.006Z,18.40
2023-02-06T21:51:10.591Z,18.43
2023-02-06T21:53:38.843Z,19.43
2023-02-06T21:56:29.864Z,18.70
2023-02-06T21:58:57.726Z,18.67
2023-02-06T22:01:28.333Z,15.47
2023-02-06T22:03:57.082Z,16.27
2023-02-06T22:06:24.193Z,15.70
2023-02-06T22:08:52.848Z,15.97
2023-02-06T22:11:30.024Z,19.33
2023-02-06T22:14:02.268Z,22.70
2023-02-06T22:16:29.554Z,15.13
2023-02-06T22:18:56.746Z,17.30
2023-02-06T22:21:26.305Z,20.70
2023-02-06T22:23:55.874Z,18.87
2023-02-06T22:26:24.159Z,16.27
2023-02-06T22:28:51.168Z,18.07
2023-02-06T22:31:20.720Z,25.37
2023-02-06T22:33:48.185Z,23.87
2023-02-06T22:36:19.884Z,20.03
2023-02-06T22:38:48.120Z,24.40
2023-02-06T22:41:16.860Z,24.80
2023-02-06T22:43:45.472Z,14.90
2023-02-06T22:46:31.599Z,18.20
2023-02-06T22:48:58.995Z,20.90
2023-02-06T22:51:26.075Z,23.53
2023-02-06T22:53:53.371Z,20.93
2023-02-06T22:56:32.284Z,19.13
2023-02-06T22:59:03.088Z,21.00
2023-02-06T23:01:38.977Z,25.77
2023-02-06T23:04:11.020Z,19.63
2023-02-06T23:06:41.212Z,23.70
2023-02-06T23:09:09.099Z,16.67
2023-02-06T23:11:36.565Z,17.97
2023-02-06T23:14:05.360Z,12.93
2023-02-06T23:16:34.158Z,12.97
2023-02-06T23:19:05.368Z,15.57
2023-02-06T23:21:35.832Z,21.17
2023-02-06T23:24:03.314Z,15.93
2023-02-06T23:26:31.000Z,18.40
2023-02-06T23:28:59.406Z,14.07
2023-02-06T23:31:27.855Z,18.20
2023-02-06T23:33:55.191Z,16.33
2023-02-06T23:36:30.596Z,11.20
2023-02-06T23:38:57.403Z,21.73
2023-02-06T23:41:27.159Z,16.73
2023-02-06T23:43:59.337Z,16.57
2023-02-06T23:46:27.983Z,20.13
2023-02-06T23:48:55.452Z,19.53
2023-02-06T23:51:23.418Z,21.70
2023-02-06T23:53:50.673Z,13.73
2023-02-06T23:56:20.997Z,13.53
2023-02-06T23:58:48.004Z,18.80
